METAR Rapporter från flygplatser

 

ESTA - Ängelholm, Sweden
Distance from station: SSV 17km
Uppdaterad: 2021-09-25 20:50
Övervägande molnigt
Övervägande molnigt
 Vind från calm
Vind: Vindstilla
Temperatur: 10°C
Daggpunkt: 8°C
Luftfuktighet: 88%
Barometer: 1016 hPa
Clouds: Övervägande molnigt
Visibility: 10 km
Cloud details: Övervägande molnigt 945 m
2021/09/25 18:50 ESTA 251850Z AUTO 00000KT 9999 BKN031/// 10/08 Q1016
ESMT - Halmstad, Sweden
Distance from station: N 26km
Uppdaterad: 2021-09-25 20:50
Enstaka moln
Enstaka moln
 Vind från calm
Vind: Vindstilla
Temperatur: 12°C
Daggpunkt: 9°C
Luftfuktighet: 82%
Barometer: 1015 hPa
Clouds: Enstaka moln
Visibility: 10 km
Cloud details: Enstaka moln 762 m
2021/09/25 18:50 ESMT 251850Z AUTO 00000KT 9999 FEW025/// 12/09 Q1015
 
ESTL - Ljungbyhed, Sweden
Distance from station: SSO 45km
Uppdaterad: 2021-09-25 20:50
Mist, Klart
Mist, Klart
 Vind från calm
Vind: Vindstilla
Temperatur: 9°C
Daggpunkt: 9°C
Luftfuktighet: 100%
Barometer: 1016 hPa
Summering: Mist
Clouds: Klart
Visibility: 8 km
2021/09/25 18:50 ESTL 251850Z AUTO 00000KT 8000 BR NCD 09/09 Q1016
EKCH - Copenhagen/Kastrup, Denmark
Distance from station: S 92km
Uppdaterad: 2021-09-25 20:50
Klart
Klart
 Vind från VNV
Vind: VNV 4 km/h
Temperatur: 13°C
Daggpunkt: 9°C
Luftfuktighet: 77%
Barometer: 1016 hPa
Clouds: Klart
Visibility: 10 km
2021/09/25 18:50 EKCH 251850Z AUTO 29002KT 9999 NCD 13/09 Q1016 NOSIG
 
ESMK - Kristianstad/Everöd, Sweden
Distance from station: SO 93km
Uppdaterad: 2021-09-25 20:50
Klart
Klart
 Vind från V
Vind: V 9 km/h
Temperatur: 11°C
Daggpunkt: 9°C
Luftfuktighet: 88%
Barometer: 1016 hPa
Clouds: Klart
Visibility: 10 km
2021/09/25 18:50 ESMK 251850Z AUTO 26005KT 9999 NCD 11/09 Q1016
ESMS - Malmö/Sturup, Sweden
Distance from station: SSO 104km
Uppdaterad: 2021-09-25 20:50
Klart
Klart
 Vind från NV
Vind: NV 2 km/h
Temperatur: 10°C
Daggpunkt: 9°C
Luftfuktighet: 94%
Barometer: 1016 hPa
Summering: Klart
Visibility: greater than 10 km
2021/09/25 18:50 ESMS 251850Z 32001KT CAVOK 10/09 Q1016
 
EKRK - Copenhagen/Roskilde, Denmark
Distance from station: SSV 108km
Uppdaterad: 2021-09-25 20:50
Klart
Klart
 Vind från VNV
Vind: VNV 2 km/h
Temperatur: 11°C
Daggpunkt: 9°C
Luftfuktighet: 88%
Barometer: 1016 hPa
Clouds: Klart
Visibility: 10 km
2021/09/25 18:50 EKRK 251850Z AUTO 29001KT 9999 NCD 11/09 Q1016
ESMX - Växjö/Kronoberg, Sweden
Distance from station: ONO 124km
Uppdaterad: 2021-09-25 20:50
Klart
Klart
 Vind från VSV
Vind: VSV 7 km/h
Temperatur: 9°C
Wind Chill: 8°C
Daggpunkt: 7°C
Luftfuktighet: 87%
Barometer: 1014 hPa
Clouds: Klart
Visibility: 10 km
2021/09/25 18:50 ESMX 251850Z AUTO 24004KT 9999 NCD 09/07 Q1014
 
EKAH - Tirstrup, Denmark
Distance from station: V 141km
Uppdaterad: 2021-09-25 20:50
Klart
Klart
 Vind från calm
Vind: Vindstilla
Temperatur: 11°C
Daggpunkt: 8°C
Luftfuktighet: 82%
Barometer: 1016 hPa
Clouds: Klart
Visibility: 10 km
2021/09/25 18:50 EKAH 251850Z AUTO 00000KT 9999 NCD 11/08 Q1016
ESGG - Göteborg/Landvetter, Sweden
Distance from station: NNV 142km
Uppdaterad: 2021-09-25 20:50
Klart
Klart
 Vind från S
Vind: S 6 km/h
Temperatur: 8°C
Daggpunkt: 6°C
Luftfuktighet: 87%
Barometer: 1014 hPa
Summering: Klart
Visibility: greater than 10 km
2021/09/25 18:50 ESGG 251850Z 19003KT CAVOK 08/06 Q1014
 
ESDF - Ronneby, Sweden
Distance from station: O 147km
Uppdaterad: 2021-09-25 20:50
Klart
Klart
 Vind från V
Vind: V 6 km/h
Temperatur: 10°C
Daggpunkt: 10°C
Luftfuktighet: 100%
Barometer: 1015 hPa
Clouds: Klart
Visibility: 10 km
2021/09/25 18:50 ESDF 251850Z AUTO 27003KT 9999 NCD 10/10 Q1015
ESGP - Göteborg/Säve, Sweden
Distance from station: NNV 161km
Uppdaterad: 2017-01-02 11:20
NOT Current
Klart
Klart
 Vind från calm
Vind: Vindstilla
Temperatur: -2°C
Daggpunkt: -4°C
Luftfuktighet: 86%
Barometer: 1012 hPa
Clouds: Klart
Visibility: 10 km
2017/01/02 10:20 ESGP 021020Z AUTO 00000KT 9999 NCD M02/M04 Q1012
 
ESGJ - Jönköping Airport, Sweden
Distance from station: NNO 164km
Uppdaterad: 2021-09-25 20:50
Klart
Klart
 Vind från V
Vind: V 7 km/h
Temperatur: 8°C
Wind Chill: 7°C
Daggpunkt: 6°C
Luftfuktighet: 87%
Barometer: 1014 hPa
Clouds: Klart
Visibility: 10 km
2021/09/25 18:50 ESGJ 251850Z AUTO 26004KT 9999 NCD 08/06 Q1014
EKAV - Avno, Denmark
Distance from station: SSV 168km
Uppdaterad: 2016-10-04 06:20
NOT Current
Klart
Klart
 
Barometer: 1039 hPa
Clouds: Klart
Visibility: 10 km
2016/10/04 04:20 EKAV 040420Z AUTO ///// 9999NDV NCD ///// Q1039
 
EKRN - Rönne, Denmark
Distance from station: SO 191km
Uppdaterad: 2021-09-25 20:50
Klart
Klart
 Vind från N
Vind: N 4 km/h
Temperatur: 12°C
Daggpunkt: 11°C
Luftfuktighet: 94%
Barometer: 1016 hPa
Clouds: Klart
Visibility: 10 km
2021/09/25 18:50 EKRN 251850Z AUTO 01002KT 9999 NCD 12/11 Q1016
EKOD - Odense/Beldringe, Denmark
Distance from station: VSV 193km
Uppdaterad: 2021-09-25 16:50
NOT Current
Delvis molnigt
Delvis molnigt
 Vind från VNV
Vind: VNV 19 km/h
Temperatur: 17°C
Daggpunkt: 11°C
Luftfuktighet: 68%
Barometer: 1014 hPa
Clouds: Delvis molnigt
Visibility: 10 km
Cloud details: Enstaka moln 1158 m
Delvis molnigt 6096 m
2021/09/25 14:50 EKOD 251450Z 30010KT 9999 FEW038 SCT200 17/11 Q1014
 
EKYT - AAlborg, Denmark
Distance from station: VNV 199km
Uppdaterad: 2021-09-25 20:50
Klart
Klart
 Vind från V
Vind: V 11 km/h
Temperatur: 12°C
Daggpunkt: 10°C
Luftfuktighet: 88%
Barometer: 1015 hPa
Summering: Klart
Visibility: greater than 10 km
2021/09/25 18:50 EKYT 251850Z 26006KT CAVOK 12/10 Q1015
EKSN - Sindal Airport, Denmark
Distance from station: NV 201km
Uppdaterad: 2021-09-24 14:50
NOT Current
Light drizzle, Övervägande molnigt
Light drizzle, Övervägande molnigt
 Vind från SV
Vind: SV 26 km/h
Temperatur: 14°C
Daggpunkt: 13°C
Luftfuktighet: 94%
Barometer: 1002 hPa
Summering: Light Drizzle
Clouds: Övervägande molnigt
Visibility: 10 km
Cloud details: Enstaka moln 213 m
Övervägande molnigt 427 m
2021/09/24 12:50 EKSN 241250Z 23014KT 9999 -DZ FEW007 BKN014 14/13 Q1002
 
ESMQ - Kalmar, Sweden
Distance from station: O 211km
Uppdaterad: 2021-09-25 20:50
Klart
Klart
 Vind från V
Vind: V 7 km/h
Temperatur: 9°C
Wind Chill: 8°C
Daggpunkt: 8°C
Luftfuktighet: 94%
Barometer: 1014 hPa
Clouds: Klart
Visibility: 10 km
2021/09/25 18:50 ESMQ 251850Z AUTO 26004KT 9999 NCD 09/08 Q1014
ESGT - Trollhättan, Sweden
Distance from station: N 212km
Uppdaterad: 2021-09-25 20:50
Klart
Klart
 Vind från varies
Vind: varies 6 km/h
Temperatur: 8°C
Daggpunkt: 6°C
Luftfuktighet: 87%
Barometer: 1014 hPa
Clouds: Klart
Visibility: 10 km
2021/09/25 18:50 ESGT 251850Z AUTO VRB03KT 9999 NCD 08/06 Q1014